sensor_id;sensor_type;location;lat;lon;timestamp;temperature;humidity
11126;DHT22;5617;54.046;10.676;2023-09-12T00:01:25;20.00;99.90
11126;DHT22;5617;54.046;10.676;2023-09-12T00:03:34;20.10;99.90
11126;DHT22;5617;54.046;10.676;2023-09-12T00:05:49;20.10;99.90
11126;DHT22;5617;54.046;10.676;2023-09-12T00:07:57;20.20;99.90
11126;DHT22;5617;54.046;10.676;2023-09-12T00:10:05;20.20;99.90
11126;DHT22;5617;54.046;10.676;2023-09-12T00:12:15;20.20;99.90
11126;DHT22;5617;54.046;10.676;2023-09-12T00:14:23;20.30;99.90
11126;DHT22;5617;54.046;10.676;2023-09-12T00:16:31;20.30;99.90
11126;DHT22;5617;54.046;10.676;2023-09-12T00:18:39;20.30;99.90
11126;DHT22;5617;54.046;10.676;2023-09-12T00:20:47;20.30;99.90
11126;DHT22;5617;54.046;10.676;2023-09-12T00:22:55;20.40;99.90
11126;DHT22;5617;54.046;10.676;2023-09-12T00:25:03;20.40;99.90
11126;DHT22;5617;54.046;10.676;2023-09-12T00:27:11;20.40;99.90
11126;DHT22;5617;54.046;10.676;2023-09-12T00:29:20;20.40;99.90
11126;DHT22;5617;54.046;10.676;2023-09-12T00:31:26;20.40;99.90
11126;DHT22;5617;54.046;10.676;2023-09-12T00:33:34;20.40;99.90
11126;DHT22;5617;54.046;10.676;2023-09-12T00:35:43;20.40;99.90
11126;DHT22;5617;54.046;10.676;2023-09-12T00:37:51;20.40;99.90
11126;DHT22;5617;54.046;10.676;2023-09-12T00:39:58;20.30;99.90
11126;DHT22;5617;54.046;10.676;2023-09-12T00:42:06;20.30;99.90
11126;DHT22;5617;54.046;10.676;2023-09-12T00:44:14;20.30;99.90
11126;DHT22;5617;54.046;10.676;2023-09-12T00:46:23;20.30;99.90
11126;DHT22;5617;54.046;10.676;2023-09-12T00:48:32;20.30;99.90
11126;DHT22;5617;54.046;10.676;2023-09-12T00:50:41;20.30;99.90
11126;DHT22;5617;54.046;10.676;2023-09-12T00:52:49;20.30;99.90
11126;DHT22;5617;54.046;10.676;2023-09-12T00:54:57;20.30;99.90
11126;DHT22;5617;54.046;10.676;2023-09-12T00:57:05;20.30;99.90
11126;DHT22;5617;54.046;10.676;2023-09-12T00:59:13;20.30;99.90
11126;DHT22;5617;54.046;10.676;2023-09-12T01:01:24;20.30;99.90
11126;DHT22;5617;54.046;10.676;2023-09-12T01:03:32;20.30;99.90
11126;DHT22;5617;54.046;10.676;2023-09-12T01:05:41;20.30;99.90
11126;DHT22;5617;54.046;10.676;2023-09-12T01:07:49;20.20;99.90
11126;DHT22;5617;54.046;10.676;2023-09-12T01:09:57;20.20;99.90
11126;DHT22;5617;54.046;10.676;2023-09-12T01:12:05;20.20;99.90
11126;DHT22;5617;54.046;10.676;2023-09-12T01:14:13;20.20;99.90
11126;DHT22;5617;54.046;10.676;2023-09-12T01:16:21;20.10;99.90
11126;DHT22;5617;54.046;10.676;2023-09-12T01:18:32;20.10;99.90
11126;DHT22;5617;54.046;10.676;2023-09-12T01:20:48;20.10;99.90
11126;DHT22;5617;54.046;10.676;2023-09-12T01:23:08;20.10;99.90
11126;DHT22;5617;54.046;10.676;2023-09-12T01:25:42;20.00;99.90
11126;DHT22;5617;54.046;10.676;2023-09-12T01:27:58;20.00;99.90
11126;DHT22;5617;54.046;10.676;2023-09-12T01:30:08;20.00;99.90
11126;DHT22;5617;54.046;10.676;2023-09-12T01:32:18;20.00;99.90
11126;DHT22;5617;54.046;10.676;2023-09-12T01:34:27;19.90;99.90
11126;DHT22;5617;54.046;10.676;2023-09-12T01:36:34;19.90;99.90
11126;DHT22;5617;54.046;10.676;2023-09-12T01:38:42;19.90;99.90
11126;DHT22;5617;54.046;10.676;2023-09-12T01:40:51;19.80;99.90
11126;DHT22;5617;54.046;10.676;2023-09-12T01:43:03;19.90;99.90
11126;DHT22;5617;54.046;10.676;2023-09-12T01:45:18;19.80;99.90
11126;DHT22;5617;54.046;10.676;2023-09-12T01:47:31;19.80;99.90
11126;DHT22;5617;54.046;10.676;2023-09-12T01:49:42;19.80;99.90
11126;DHT22;5617;54.046;10.676;2023-09-12T01:51:50;19.80;99.90
11126;DHT22;5617;54.046;10.676;2023-09-12T01:53:58;19.80;99.90
11126;DHT22;5617;54.046;10.676;2023-09-12T01:56:08;19.80;99.90
11126;DHT22;5617;54.046;10.676;2023-09-12T01:58:17;19.80;99.90
11126;DHT22;5617;54.046;10.676;2023-09-12T02:00:25;19.80;99.90
11126;DHT22;5617;54.046;10.676;2023-09-12T02:02:32;19.80;99.90
11126;DHT22;5617;54.046;10.676;2023-09-12T02:04:40;19.80;99.90
11126;DHT22;5617;54.046;10.676;2023-09-12T02:06:47;19.80;99.90
11126;DHT22;5617;54.046;10.676;2023-09-12T02:08:55;19.80;99.90
11126;DHT22;5617;54.046;10.676;2023-09-12T02:11:03;19.80;99.90
11126;DHT22;5617;54.046;10.676;2023-09-12T02:13:10;19.80;99.90
11126;DHT22;5617;54.046;10.676;2023-09-12T02:15:19;19.80;99.90
11126;DHT22;5617;54.046;10.676;2023-09-12T02:17:30;19.80;99.90
11126;DHT22;5617;54.046;10.676;2023-09-12T02:19:38;19.80;99.90
11126;DHT22;5617;54.046;10.676;2023-09-12T02:21:45;19.80;99.90
11126;DHT22;5617;54.046;10.676;2023-09-12T02:23:53;19.80;99.90
11126;DHT22;5617;54.046;10.676;2023-09-12T02:26:00;19.80;99.90
11126;DHT22;5617;54.046;10.676;2023-09-12T02:28:09;19.80;99.90
11126;DHT22;5617;54.046;10.676;2023-09-12T02:30:16;19.80;99.90
11126;DHT22;5617;54.046;10.676;2023-09-12T02:32:25;19.80;99.90
11126;DHT22;5617;54.046;10.676;2023-09-12T02:34:33;19.80;99.90
11126;DHT22;5617;54.046;10.676;2023-09-12T02:36:41;19.80;99.90
11126;DHT22;5617;54.046;10.676;2023-09-12T02:38:48;19.80;99.90
11126;DHT22;5617;54.046;10.676;2023-09-12T02:40:56;19.80;99.90
11126;DHT22;5617;54.046;10.676;2023-09-12T02:43:03;19.80;99.90
11126;DHT22;5617;54.046;10.676;2023-09-12T02:45:11;19.80;99.90
11126;DHT22;5617;54.046;10.676;2023-09-12T02:47:19;19.80;99.90
11126;DHT22;5617;54.046;10.676;2023-09-12T02:49:28;19.80;99.90
11126;DHT22;5617;54.046;10.676;2023-09-12T02:51:38;19.80;99.90
11126;DHT22;5617;54.046;10.676;2023-09-12T02:53:45;19.70;99.90
11126;DHT22;5617;54.046;10.676;2023-09-12T02:55:53;19.70;99.90
11126;DHT22;5617;54.046;10.676;2023-09-12T02:58:01;19.70;99.90
11126;DHT22;5617;54.046;10.676;2023-09-12T03:00:10;19.60;99.90
11126;DHT22;5617;54.046;10.676;2023-09-12T03:02:18;19.60;99.90
11126;DHT22;5617;54.046;10.676;2023-09-12T03:04:25;19.70;99.90
11126;DHT22;5617;54.046;10.676;2023-09-12T03:06:35;19.70;99.90
11126;DHT22;5617;54.046;10.676;2023-09-12T03:08:43;19.70;99.90
11126;DHT22;5617;54.046;10.676;2023-09-12T03:10:54;19.60;99.90
11126;DHT22;5617;54.046;10.676;2023-09-12T03:13:03;19.60;99.90
11126;DHT22;5617;54.046;10.676;2023-09-12T03:15:11;19.60;99.90
11126;DHT22;5617;54.046;10.676;2023-09-12T03:17:20;19.70;99.90
11126;DHT22;5617;54.046;10.676;2023-09-12T03:19:30;19.70;99.90
11126;DHT22;5617;54.046;10.676;2023-09-12T03:21:39;19.70;99.90
11126;DHT22;5617;54.046;10.676;2023-09-12T03:23:47;19.70;99.90
11126;DHT22;5617;54.046;10.676;2023-09-12T03:25:55;19.70;99.90
11126;DHT22;5617;54.046;10.676;2023-09-12T03:28:02;19.70;99.90
11126;DHT22;5617;54.046;10.676;2023-09-12T03:30:10;19.60;99.90
11126;DHT22;5617;54.046;10.676;2023-09-12T03:32:19;19.70;99.90
11126;DHT22;5617;54.046;10.676;2023-09-12T03:34:28;19.70;99.90
11126;DHT22;5617;54.046;10.676;2023-09-12T03:36:37;19.70;99.90
11126;DHT22;5617;54.046;10.676;2023-09-12T03:38:46;19.70;99.90
11126;DHT22;5617;54.046;10.676;2023-09-12T03:40:54;19.70;99.90
11126;DHT22;5617;54.046;10.676;2023-09-12T03:43:03;19.70;99.90
11126;DHT22;5617;54.046;10.676;2023-09-12T03:45:11;19.70;99.90
11126;DHT22;5617;54.046;10.676;2023-09-12T03:47:20;19.70;99.90
11126;DHT22;5617;54.046;10.676;2023-09-12T03:49:27;19.70;99.90
11126;DHT22;5617;54.046;10.676;2023-09-12T03:51:37;19.70;99.90
11126;DHT22;5617;54.046;10.676;2023-09-12T03:53:47;19.80;99.90
11126;DHT22;5617;54.046;10.676;2023-09-12T03:55:57;19.70;99.90
11126;DHT22;5617;54.046;10.676;2023-09-12T03:58:05;19.80;99.90
11126;DHT22;5617;54.046;10.676;2023-09-12T04:00:14;19.80;99.90
11126;DHT22;5617;54.046;10.676;2023-09-12T04:02:22;19.80;99.90
11126;DHT22;5617;54.046;10.676;2023-09-12T04:04:30;19.80;99.90
11126;DHT22;5617;54.046;10.676;2023-09-12T04:06:38;19.80;99.90
11126;DHT22;5617;54.046;10.676;2023-09-12T04:08:47;19.80;99.90
11126;DHT22;5617;54.046;10.676;2023-09-12T04:10:55;19.80;99.90
11126;DHT22;5617;54.046;10.676;2023-09-12T04:13:03;19.80;99.90
11126;DHT22;5617;54.046;10.676;2023-09-12T04:15:11;19.70;99.90
11126;DHT22;5617;54.046;10.676;2023-09-12T04:17:19;19.70;99.90
11126;DHT22;5617;54.046;10.676;2023-09-12T04:19:26;19.70;99.90
11126;DHT22;5617;54.046;10.676;2023-09-12T04:21:34;19.80;99.90
11126;DHT22;5617;54.046;10.676;2023-09-12T04:23:42;19.90;99.90
11126;DHT22;5617;54.046;10.676;2023-09-12T04:25:51;19.80;99.90
11126;DHT22;5617;54.046;10.676;2023-09-12T04:27:59;19.80;99.90
11126;DHT22;5617;54.046;10.676;2023-09-12T04:30:07;19.80;99.90
11126;DHT22;5617;54.046;10.676;2023-09-12T04:32:16;19.80;99.90
11126;DHT22;5617;54.046;10.676;2023-09-12T04:34:29;19.80;99.90
11126;DHT22;5617;54.046;10.676;2023-09-12T04:36:37;19.80;99.90
11126;DHT22;5617;54.046;10.676;2023-09-12T04:38:45;19.80;99.90
11126;DHT22;5617;54.046;10.676;2023-09-12T04:40:55;19.90;99.90
11126;DHT22;5617;54.046;10.676;2023-09-12T04:43:04;19.90;99.90
11126;DHT22;5617;54.046;10.676;2023-09-12T04:45:12;19.90;99.90
11126;DHT22;5617;54.046;10.676;2023-09-12T04:47:20;19.90;99.90
11126;DHT22;5617;54.046;10.676;2023-09-12T04:49:28;19.90;99.90
11126;DHT22;5617;54.046;10.676;2023-09-12T04:51:36;19.90;99.90
11126;DHT22;5617;54.046;10.676;2023-09-12T04:53:44;20.00;99.90
11126;DHT22;5617;54.046;10.676;2023-09-12T04:56:04;19.90;99.90
11126;DHT22;5617;54.046;10.676;2023-09-12T04:58:15;19.90;99.90
11126;DHT22;5617;54.046;10.676;2023-09-12T05:00:23;19.90;99.90
11126;DHT22;5617;54.046;10.676;2023-09-12T05:02:31;19.90;99.90
11126;DHT22;5617;54.046;10.676;2023-09-12T05:04:39;19.90;99.90
11126;DHT22;5617;54.046;10.676;2023-09-12T05:06:47;20.00;99.90
11126;DHT22;5617;54.046;10.676;2023-09-12T05:08:55;20.00;99.90
11126;DHT22;5617;54.046;10.676;2023-09-12T05:11:04;19.90;99.90
11126;DHT22;5617;54.046;10.676;2023-09-12T05:13:13;19.90;99.90
11126;DHT22;5617;54.046;10.676;2023-09-12T05:15:21;19.90;99.90
11126;DHT22;5617;54.046;10.676;2023-09-12T05:17:29;19.90;99.90
11126;DHT22;5617;54.046;10.676;2023-09-12T05:19:37;19.90;99.90
11126;DHT22;5617;54.046;10.676;2023-09-12T05:21:45;19.90;99.90
11126;DHT22;5617;54.046;10.676;2023-09-12T05:23:53;19.90;99.90
11126;DHT22;5617;54.046;10.676;2023-09-12T05:26:01;19.90;99.90
11126;DHT22;5617;54.046;10.676;2023-09-12T05:28:11;19.90;99.90
11126;DHT22;5617;54.046;10.676;2023-09-12T05:30:22;20.00;99.90
11126;DHT22;5617;54.046;10.676;2023-09-12T05:32:30;20.00;99.90
11126;DHT22;5617;54.046;10.676;2023-09-12T05:34:38;20.00;99.90
11126;DHT22;5617;54.046;10.676;2023-09-12T05:36:46;19.90;99.90
11126;DHT22;5617;54.046;10.676;2023-09-12T05:38:57;20.00;99.90
11126;DHT22;5617;54.046;10.676;2023-09-12T05:41:06;20.00;99.90
11126;DHT22;5617;54.046;10.676;2023-09-12T05:43:15;20.00;99.90
11126;DHT22;5617;54.046;10.676;2023-09-12T05:45:23;20.00;99.90
11126;DHT22;5617;54.046;10.676;2023-09-12T05:47:31;20.10;99.90
11126;DHT22;5617;54.046;10.676;2023-09-12T05:49:39;20.10;99.90
11126;DHT22;5617;54.046;10.676;2023-09-12T05:51:47;20.00;99.90
11126;DHT22;5617;54.046;10.676;2023-09-12T05:53:55;20.10;99.90
11126;DHT22;5617;54.046;10.676;2023-09-12T05:56:03;20.20;99.90
11126;DHT22;5617;54.046;10.676;2023-09-12T05:58:11;20.00;99.90
11126;DHT22;5617;54.046;10.676;2023-09-12T06:00:21;20.00;99.90
11126;DHT22;5617;54.046;10.676;2023-09-12T06:02:29;20.00;99.90
11126;DHT22;5617;54.046;10.676;2023-09-12T06:04:37;20.00;99.90
11126;DHT22;5617;54.046;10.676;2023-09-12T06:06:46;20.00;99.90
11126;DHT22;5617;54.046;10.676;2023-09-12T06:08:55;20.00;99.90
11126;DHT22;5617;54.046;10.676;2023-09-12T06:11:02;20.00;99.90
11126;DHT22;5617;54.046;10.676;2023-09-12T06:13:10;20.00;99.90
11126;DHT22;5617;54.046;10.676;2023-09-12T06:15:20;20.10;99.90
11126;DHT22;5617;54.046;10.676;2023-09-12T06:17:28;20.10;99.90
11126;DHT22;5617;54.046;10.676;2023-09-12T06:19:35;20.10;99.90
11126;DHT22;5617;54.046;10.676;2023-09-12T06:21:43;20.10;99.90
11126;DHT22;5617;54.046;10.676;2023-09-12T06:24:08;20.10;99.90
11126;DHT22;5617;54.046;10.676;2023-09-12T06:26:16;20.10;99.90
11126;DHT22;5617;54.046;10.676;2023-09-12T06:28:25;20.10;99.90
11126;DHT22;5617;54.046;10.676;2023-09-12T06:30:34;20.10;99.90
11126;DHT22;5617;54.046;10.676;2023-09-12T06:32:43;20.10;99.90
11126;DHT22;5617;54.046;10.676;2023-09-12T06:34:51;20.10;99.90
11126;DHT22;5617;54.046;10.676;2023-09-12T06:36:59;20.10;99.90
11126;DHT22;5617;54.046;10.676;2023-09-12T06:39:06;20.10;99.90
11126;DHT22;5617;54.046;10.676;2023-09-12T06:41:14;20.10;99.90
11126;DHT22;5617;54.046;10.676;2023-09-12T06:43:22;20.10;99.90
11126;DHT22;5617;54.046;10.676;2023-09-12T06:45:30;20.10;99.90
11126;DHT22;5617;54.046;10.676;2023-09-12T06:47:41;20.20;99.90
11126;DHT22;5617;54.046;10.676;2023-09-12T06:49:49;20.20;99.90
11126;DHT22;5617;54.046;10.676;2023-09-12T06:52:03;20.20;99.90
11126;DHT22;5617;54.046;10.676;2023-09-12T06:54:11;20.30;99.90
11126;DHT22;5617;54.046;10.676;2023-09-12T06:56:19;20.20;99.90
11126;DHT22;5617;54.046;10.676;2023-09-12T06:58:28;20.20;99.90
11126;DHT22;5617;54.046;10.676;2023-09-12T07:00:39;20.30;99.90
11126;DHT22;5617;54.046;10.676;2023-09-12T07:02:48;20.30;99.90
11126;DHT22;5617;54.046;10.676;2023-09-12T07:04:56;20.40;99.90
11126;DHT22;5617;54.046;10.676;2023-09-12T07:07:05;20.40;99.90
11126;DHT22;5617;54.046;10.676;2023-09-12T07:09:13;20.50;99.90
11126;DHT22;5617;54.046;10.676;2023-09-12T07:11:21;20.50;99.90
11126;DHT22;5617;54.046;10.676;2023-09-12T07:13:31;20.50;99.90
11126;DHT22;5617;54.046;10.676;2023-09-12T07:15:39;20.60;99.90
11126;DHT22;5617;54.046;10.676;2023-09-12T07:17:48;20.60;99.90
11126;DHT22;5617;54.046;10.676;2023-09-12T07:19:57;20.70;99.90
11126;DHT22;5617;54.046;10.676;2023-09-12T07:22:05;20.70;99.90
11126;DHT22;5617;54.046;10.676;2023-09-12T07:24:13;20.80;99.90
11126;DHT22;5617;54.046;10.676;2023-09-12T07:26:21;20.70;99.90
11126;DHT22;5617;54.046;10.676;2023-09-12T07:28:33;20.80;99.90
11126;DHT22;5617;54.046;10.676;2023-09-12T07:30:41;20.80;99.90
11126;DHT22;5617;54.046;10.676;2023-09-12T07:32:50;20.80;99.90
11126;DHT22;5617;54.046;10.676;2023-09-12T07:34:59;20.80;99.90
11126;DHT22;5617;54.046;10.676;2023-09-12T07:37:07;20.80;99.90
11126;DHT22;5617;54.046;10.676;2023-09-12T07:39:15;20.80;99.90
11126;DHT22;5617;54.046;10.676;2023-09-12T07:41:23;20.80;99.90
11126;DHT22;5617;54.046;10.676;2023-09-12T07:43:31;20.80;99.90
11126;DHT22;5617;54.046;10.676;2023-09-12T07:45:39;20.80;99.90
11126;DHT22;5617;54.046;10.676;2023-09-12T07:47:47;20.80;99.90
11126;DHT22;5617;54.046;10.676;2023-09-12T07:49:56;20.80;99.90
11126;DHT22;5617;54.046;10.676;2023-09-12T07:52:06;20.80;99.90
11126;DHT22;5617;54.046;10.676;2023-09-12T07:54:14;20.80;99.90
11126;DHT22;5617;54.046;10.676;2023-09-12T07:56:24;20.80;99.90
11126;DHT22;5617;54.046;10.676;2023-09-12T07:58:33;20.80;99.90
11126;DHT22;5617;54.046;10.676;2023-09-12T08:00:41;20.80;99.90
11126;DHT22;5617;54.046;10.676;2023-09-12T08:02:49;20.90;99.90
11126;DHT22;5617;54.046;10.676;2023-09-12T08:04:58;20.90;99.90
11126;DHT22;5617;54.046;10.676;2023-09-12T08:07:06;20.90;99.90
11126;DHT22;5617;54.046;10.676;2023-09-12T08:09:19;20.90;99.90
11126;DHT22;5617;54.046;10.676;2023-09-12T08:11:27;20.90;99.90
11126;DHT22;5617;54.046;10.676;2023-09-12T08:13:35;21.00;99.90
11126;DHT22;5617;54.046;10.676;2023-09-12T08:15:42;21.10;99.90
11126;DHT22;5617;54.046;10.676;2023-09-12T08:17:50;21.00;99.90
11126;DHT22;5617;54.046;10.676;2023-09-12T08:20:01;21.10;99.90
11126;DHT22;5617;54.046;10.676;2023-09-12T08:22:10;21.10;99.90
11126;DHT22;5617;54.046;10.676;2023-09-12T08:24:18;21.10;99.90
11126;DHT22;5617;54.046;10.676;2023-09-12T08:26:26;21.20;99.90
11126;DHT22;5617;54.046;10.676;2023-09-12T08:28:40;21.20;99.90
11126;DHT22;5617;54.046;10.676;2023-09-12T08:30:48;21.20;99.90
11126;DHT22;5617;54.046;10.676;2023-09-12T08:32:56;21.20;99.90
11126;DHT22;5617;54.046;10.676;2023-09-12T08:35:07;21.20;99.90
11126;DHT22;5617;54.046;10.676;2023-09-12T08:37:15;21.30;99.90
11126;DHT22;5617;54.046;10.676;2023-09-12T08:39:24;21.30;99.90
11126;DHT22;5617;54.046;10.676;2023-09-12T08:41:32;21.30;99.90
11126;DHT22;5617;54.046;10.676;2023-09-12T08:43:40;21.20;99.90
11126;DHT22;5617;54.046;10.676;2023-09-12T08:45:48;21.30;99.90
11126;DHT22;5617;54.046;10.676;2023-09-12T08:47:59;21.30;99.90
11126;DHT22;5617;54.046;10.676;2023-09-12T08:50:11;21.30;99.90
11126;DHT22;5617;54.046;10.676;2023-09-12T08:52:20;21.40;99.90
11126;DHT22;5617;54.046;10.676;2023-09-12T08:54:28;21.40;99.90
11126;DHT22;5617;54.046;10.676;2023-09-12T08:56:38;21.40;99.90
11126;DHT22;5617;54.046;10.676;2023-09-12T08:58:48;21.40;99.90
11126;DHT22;5617;54.046;10.676;2023-09-12T09:00:56;21.40;99.90
11126;DHT22;5617;54.046;10.676;2023-09-12T09:03:05;21.40;99.90
11126;DHT22;5617;54.046;10.676;2023-09-12T09:05:14;21.50;99.90
11126;DHT22;5617;54.046;10.676;2023-09-12T09:07:22;21.70;99.90
11126;DHT22;5617;54.046;10.676;2023-09-12T09:09:31;21.90;99.90
11126;DHT22;5617;54.046;10.676;2023-09-12T09:11:39;22.00;99.90
11126;DHT22;5617;54.046;10.676;2023-09-12T09:13:47;22.20;99.90
11126;DHT22;5617;54.046;10.676;2023-09-12T09:16:12;22.30;99.90
11126;DHT22;5617;54.046;10.676;2023-09-12T09:18:20;22.50;99.90
11126;DHT22;5617;54.046;10.676;2023-09-12T09:20:31;22.50;99.90
11126;DHT22;5617;54.046;10.676;2023-09-12T09:22:38;22.50;99.90
11126;DHT22;5617;54.046;10.676;2023-09-12T09:24:47;22.60;99.90
11126;DHT22;5617;54.046;10.676;2023-09-12T09:26:55;22.70;99.90
11126;DHT22;5617;54.046;10.676;2023-09-12T09:29:09;22.80;99.90
11126;DHT22;5617;54.046;10.676;2023-09-12T09:31:17;22.90;99.90
11126;DHT22;5617;54.046;10.676;2023-09-12T09:33:25;23.00;99.90
11126;DHT22;5617;54.046;10.676;2023-09-12T09:35:36;23.00;99.90
11126;DHT22;5617;54.046;10.676;2023-09-12T09:37:44;23.20;99.90
11126;DHT22;5617;54.046;10.676;2023-09-12T09:39:52;23.40;99.90
11126;DHT22;5617;54.046;10.676;2023-09-12T09:41:59;23.50;99.90
11126;DHT22;5617;54.046;10.676;2023-09-12T09:44:08;23.50;99.90
11126;DHT22;5617;54.046;10.676;2023-09-12T09:46:16;23.50;99.90
11126;DHT22;5617;54.046;10.676;2023-09-12T09:48:27;23.40;99.90
11126;DHT22;5617;54.046;10.676;2023-09-12T09:50:36;23.40;99.90
11126;DHT22;5617;54.046;10.676;2023-09-12T09:52:53;23.50;99.90
11126;DHT22;5617;54.046;10.676;2023-09-12T09:55:01;23.70;99.90
11126;DHT22;5617;54.046;10.676;2023-09-12T09:57:11;23.80;99.90
11126;DHT22;5617;54.046;10.676;2023-09-12T09:59:22;24.00;99.90
11126;DHT22;5617;54.046;10.676;2023-09-12T10:01:30;24.00;99.90
11126;DHT22;5617;54.046;10.676;2023-09-12T10:03:39;24.10;99.90
11126;DHT22;5617;54.046;10.676;2023-09-12T10:05:51;24.20;99.90
11126;DHT22;5617;54.046;10.676;2023-09-12T10:08:03;24.30;99.90
11126;DHT22;5617;54.046;10.676;2023-09-12T10:10:16;24.20;99.90
11126;DHT22;5617;54.046;10.676;2023-09-12T10:12:26;24.10;99.90
11126;DHT22;5617;54.046;10.676;2023-09-12T10:14:38;24.10;99.90
11126;DHT22;5617;54.046;10.676;2023-09-12T10:16:48;24.20;99.90
11126;DHT22;5617;54.046;10.676;2023-09-12T10:19:03;24.20;99.90
11126;DHT22;5617;54.046;10.676;2023-09-12T10:21:21;24.20;99.90
11126;DHT22;5617;54.046;10.676;2023-09-12T10:23:35;24.20;99.90
11126;DHT22;5617;54.046;10.676;2023-09-12T10:25:49;24.30;99.90
11126;DHT22;5617;54.046;10.676;2023-09-12T10:27:58;24.40;99.90
11126;DHT22;5617;54.046;10.676;2023-09-12T10:30:08;24.40;99.90
11126;DHT22;5617;54.046;10.676;2023-09-12T10:32:17;24.30;99.90
11126;DHT22;5617;54.046;10.676;2023-09-12T10:34:26;24.20;99.90
11126;DHT22;5617;54.046;10.676;2023-09-12T10:36:38;24.10;99.90
11126;DHT22;5617;54.046;10.676;2023-09-12T10:38:47;24.10;99.90
11126;DHT22;5617;54.046;10.676;2023-09-12T10:40:55;24.00;99.90
11126;DHT22;5617;54.046;10.676;2023-09-12T10:43:04;24.00;99.90
11126;DHT22;5617;54.046;10.676;2023-09-12T10:45:12;24.00;99.90
11126;DHT22;5617;54.046;10.676;2023-09-12T10:47:20;24.00;99.90
11126;DHT22;5617;54.046;10.676;2023-09-12T10:49:31;24.00;99.90
11126;DHT22;5617;54.046;10.676;2023-09-12T10:51:43;24.00;99.90
11126;DHT22;5617;54.046;10.676;2023-09-12T10:53:50;24.10;99.90
11126;DHT22;5617;54.046;10.676;2023-09-12T10:56:01;24.10;99.90
11126;DHT22;5617;54.046;10.676;2023-09-12T10:58:21;24.20;99.90
11126;DHT22;5617;54.046;10.676;2023-09-12T11:00:29;24.20;99.90
11126;DHT22;5617;54.046;10.676;2023-09-12T11:02:40;24.20;99.90
11126;DHT22;5617;54.046;10.676;2023-09-12T11:04:48;24.20;99.90
11126;DHT22;5617;54.046;10.676;2023-09-12T11:06:56;24.30;99.90
11126;DHT22;5617;54.046;10.676;2023-09-12T11:09:18;24.30;99.90
11126;DHT22;5617;54.046;10.676;2023-09-12T11:11:26;24.30;99.90
11126;DHT22;5617;54.046;10.676;2023-09-12T11:13:38;24.40;99.90
11126;DHT22;5617;54.046;10.676;2023-09-12T11:16:12;24.40;99.90
11126;DHT22;5617;54.046;10.676;2023-09-12T11:18:21;24.40;99.90
11126;DHT22;5617;54.046;10.676;2023-09-12T11:20:50;24.40;99.90
11126;DHT22;5617;54.046;10.676;2023-09-12T11:23:10;24.40;99.90
11126;DHT22;5617;54.046;10.676;2023-09-12T11:25:19;24.50;99.90
11126;DHT22;5617;54.046;10.676;2023-09-12T11:27:31;24.40;99.90
11126;DHT22;5617;54.046;10.676;2023-09-12T11:29:40;24.40;99.90
11126;DHT22;5617;54.046;10.676;2023-09-12T11:31:56;24.40;99.90
11126;DHT22;5617;54.046;10.676;2023-09-12T11:34:08;24.30;99.90
11126;DHT22;5617;54.046;10.676;2023-09-12T11:36:18;24.20;99.90
11126;DHT22;5617;54.046;10.676;2023-09-12T11:38:29;24.20;99.90
11126;DHT22;5617;54.046;10.676;2023-09-12T11:40:44;24.10;99.90
11126;DHT22;5617;54.046;10.676;2023-09-12T11:42:53;24.10;99.90
11126;DHT22;5617;54.046;10.676;2023-09-12T11:45:02;24.10;99.90
11126;DHT22;5617;54.046;10.676;2023-09-12T11:47:15;24.10;99.90
11126;DHT22;5617;54.046;10.676;2023-09-12T11:49:23;24.10;99.90
11126;DHT22;5617;54.046;10.676;2023-09-12T11:51:32;24.10;99.90
11126;DHT22;5617;54.046;10.676;2023-09-12T11:53:41;24.20;99.90
11126;DHT22;5617;54.046;10.676;2023-09-12T11:55:50;24.10;99.90
11126;DHT22;5617;54.046;10.676;2023-09-12T11:57:59;24.10;99.90
11126;DHT22;5617;54.046;10.676;2023-09-12T12:00:10;24.10;99.90
11126;DHT22;5617;54.046;10.676;2023-09-12T12:02:19;24.10;99.90
11126;DHT22;5617;54.046;10.676;2023-09-12T12:04:27;24.10;99.90
11126;DHT22;5617;54.046;10.676;2023-09-12T12:06:36;24.00;99.90
11126;DHT22;5617;54.046;10.676;2023-09-12T12:08:45;24.00;99.90
11126;DHT22;5617;54.046;10.676;2023-09-12T12:10:53;24.00;99.90
11126;DHT22;5617;54.046;10.676;2023-09-12T12:13:01;23.90;99.90
11126;DHT22;5617;54.046;10.676;2023-09-12T12:15:10;23.80;99.90
11126;DHT22;5617;54.046;10.676;2023-09-12T12:17:18;23.70;99.90
11126;DHT22;5617;54.046;10.676;2023-09-12T12:19:26;23.70;99.90
11126;DHT22;5617;54.046;10.676;2023-09-12T12:21:34;23.60;99.90
11126;DHT22;5617;54.046;10.676;2023-09-12T12:23:44;23.60;99.90
11126;DHT22;5617;54.046;10.676;2023-09-12T12:25:52;23.60;99.90
11126;DHT22;5617;54.046;10.676;2023-09-12T12:28:00;23.50;99.90
11126;DHT22;5617;54.046;10.676;2023-09-12T12:30:11;23.50;99.90
11126;DHT22;5617;54.046;10.676;2023-09-12T12:32:20;23.50;99.90
11126;DHT22;5617;54.046;10.676;2023-09-12T12:34:28;23.50;99.90
11126;DHT22;5617;54.046;10.676;2023-09-12T12:36:55;23.50;99.90
11126;DHT22;5617;54.046;10.676;2023-09-12T12:39:10;23.50;99.90
11126;DHT22;5617;54.046;10.676;2023-09-12T12:41:22;23.60;99.90
11126;DHT22;5617;54.046;10.676;2023-09-12T12:43:31;23.60;99.90
11126;DHT22;5617;54.046;10.676;2023-09-12T12:45:39;23.60;99.90
11126;DHT22;5617;54.046;10.676;2023-09-12T12:48:00;23.60;99.90
11126;DHT22;5617;54.046;10.676;2023-09-12T12:50:10;23.70;99.90
11126;DHT22;5617;54.046;10.676;2023-09-12T12:52:22;23.70;99.90
11126;DHT22;5617;54.046;10.676;2023-09-12T12:54:32;23.70;99.90
11126;DHT22;5617;54.046;10.676;2023-09-12T12:56:41;23.70;99.90
11126;DHT22;5617;54.046;10.676;2023-09-12T12:58:52;23.70;99.90
11126;DHT22;5617;54.046;10.676;2023-09-12T13:01:00;23.70;99.90
11126;DHT22;5617;54.046;10.676;2023-09-12T13:03:07;23.80;99.90
11126;DHT22;5617;54.046;10.676;2023-09-12T13:05:24;23.80;99.90
11126;DHT22;5617;54.046;10.676;2023-09-12T13:07:33;23.80;99.90
11126;DHT22;5617;54.046;10.676;2023-09-12T13:09:42;23.80;99.90
11126;DHT22;5617;54.046;10.676;2023-09-12T13:11:50;23.80;99.90
11126;DHT22;5617;54.046;10.676;2023-09-12T13:13:58;23.80;99.90
11126;DHT22;5617;54.046;10.676;2023-09-12T13:16:06;23.80;99.90
11126;DHT22;5617;54.046;10.676;2023-09-12T13:18:16;23.90;99.90
11126;DHT22;5617;54.046;10.676;2023-09-12T13:20:24;23.90;99.90
11126;DHT22;5617;54.046;10.676;2023-09-12T13:22:32;23.90;99.90
11126;DHT22;5617;54.046;10.676;2023-09-12T13:24:40;23.80;99.90
11126;DHT22;5617;54.046;10.676;2023-09-12T13:26:49;23.80;99.90
11126;DHT22;5617;54.046;10.676;2023-09-12T13:28:56;23.80;99.90
11126;DHT22;5617;54.046;10.676;2023-09-12T13:31:04;23.80;99.90
11126;DHT22;5617;54.046;10.676;2023-09-12T13:33:13;23.90;99.90
11126;DHT22;5617;54.046;10.676;2023-09-12T13:35:22;23.90;99.90
11126;DHT22;5617;54.046;10.676;2023-09-12T13:37:33;24.00;99.90